createdAt,value
2023-08-14T00:00:16.148Z,17.25
2023-08-14T00:01:16.156Z,17.24
2023-08-14T00:02:16.392Z,17.26
2023-08-14T00:03:16.378Z,17.29
2023-08-14T00:04:16.212Z,17.30
2023-08-14T00:05:16.212Z,17.33
2023-08-14T00:06:16.232Z,17.34
2023-08-14T00:07:16.207Z,17.34
2023-08-14T00:08:16.259Z,17.37
2023-08-14T00:09:16.287Z,17.39
2023-08-14T00:10:16.233Z,17.42
2023-08-14T00:11:16.267Z,17.41
2023-08-14T00:12:16.509Z,17.42
2023-08-14T00:13:16.298Z,17.42
2023-08-14T00:14:16.329Z,17.41
2023-08-14T00:15:16.368Z,17.40
2023-08-14T00:16:16.345Z,17.37
2023-08-14T00:17:16.329Z,17.34
2023-08-14T00:18:16.379Z,17.32
2023-08-14T00:19:16.450Z,17.30
2023-08-14T00:20:16.429Z,17.26
2023-08-14T00:21:16.395Z,17.24
2023-08-14T00:22:16.693Z,17.25
2023-08-14T00:23:16.431Z,17.27
2023-08-14T00:24:16.415Z,17.26
2023-08-14T00:25:16.488Z,17.27
2023-08-14T00:26:16.456Z,17.25
2023-08-14T00:27:16.478Z,17.24
2023-08-14T00:28:16.492Z,17.21
2023-08-14T00:29:16.513Z,17.19
2023-08-14T00:30:16.523Z,17.18
2023-08-14T00:31:16.520Z,17.16
2023-08-14T00:32:16.800Z,17.17
2023-08-14T00:33:16.544Z,17.18
2023-08-14T00:34:16.554Z,17.16
2023-08-14T00:35:16.611Z,17.14
2023-08-14T00:36:16.608Z,17.14
2023-08-14T00:37:16.589Z,17.14
2023-08-14T00:38:16.589Z,17.13
2023-08-14T00:39:16.646Z,17.12
2023-08-14T00:40:16.646Z,17.12
2023-08-14T00:41:16.672Z,17.12
2023-08-14T00:42:16.809Z,17.13
2023-08-14T00:43:16.665Z,17.13
2023-08-14T00:44:16.693Z,17.13
2023-08-14T00:45:17.571Z,17.12
2023-08-14T00:46:16.725Z,17.11
2023-08-14T00:47:16.720Z,17.09
2023-08-14T00:48:16.754Z,17.06
2023-08-14T00:49:16.716Z,17.04
2023-08-14T00:50:16.782Z,17.02
2023-08-14T00:51:16.762Z,16.98
2023-08-14T00:52:16.956Z,16.97
2023-08-14T00:53:16.812Z,16.96
2023-08-14T00:54:16.793Z,16.94
2023-08-14T00:55:16.859Z,16.95
2023-08-14T00:56:17.185Z,16.94
2023-08-14T00:57:16.840Z,16.95
2023-08-14T00:58:16.845Z,16.95
2023-08-14T00:59:16.877Z,16.95
2023-08-14T01:00:16.869Z,16.93
2023-08-14T01:01:16.938Z,16.93
2023-08-14T01:02:17.219Z,16.90
2023-08-14T01:03:16.929Z,16.89
2023-08-14T01:04:16.937Z,16.87
2023-08-14T01:05:17.320Z,16.86
2023-08-14T01:06:16.992Z,16.83
2023-08-14T01:07:17.008Z,16.80
2023-08-14T01:08:16.970Z,16.79
2023-08-14T01:09:16.996Z,16.78
2023-08-14T01:10:16.954Z,16.78
2023-08-14T01:11:16.992Z,16.78
2023-08-14T01:12:17.118Z,16.75
2023-08-14T01:13:16.980Z,16.76
2023-08-14T01:14:16.948Z,16.77
2023-08-14T01:15:16.960Z,16.79
2023-08-14T01:16:17.025Z,16.81
2023-08-14T01:17:17.012Z,16.82
2023-08-14T01:18:16.930Z,16.82
2023-08-14T01:19:16.949Z,16.82
2023-08-14T01:20:16.965Z,16.83
2023-08-14T01:21:16.994Z,16.82
2023-08-14T01:23:17.017Z,16.82
2023-08-14T01:24:16.969Z,16.82
2023-08-14T01:25:16.955Z,16.82
2023-08-14T01:26:16.973Z,16.82
2023-08-14T01:27:17.003Z,16.81
2023-08-14T01:28:17.000Z,16.82
2023-08-14T01:29:17.041Z,16.83
2023-08-14T01:30:16.969Z,16.83
2023-08-14T01:31:16.998Z,16.83
2023-08-14T01:32:17.261Z,16.83
2023-08-14T01:33:17.059Z,16.83
2023-08-14T01:34:17.043Z,16.84
2023-08-14T01:35:16.997Z,16.85
2023-08-14T01:36:16.990Z,16.85
2023-08-14T01:37:16.991Z,16.84
2023-08-14T01:38:17.009Z,16.85
2023-08-14T01:39:16.999Z,16.86
2023-08-14T01:40:17.052Z,16.86
2023-08-14T01:41:16.999Z,16.85
2023-08-14T01:42:17.237Z,16.84
2023-08-14T01:43:17.038Z,16.84
2023-08-14T01:44:16.989Z,16.85
2023-08-14T01:45:16.985Z,16.86
2023-08-14T01:46:17.037Z,16.88
2023-08-14T01:47:17.002Z,16.89
2023-08-14T01:48:17.020Z,16.89
2023-08-14T01:49:17.028Z,16.90
2023-08-14T01:50:17.029Z,16.93
2023-08-14T01:51:17.000Z,16.95
2023-08-14T01:52:17.312Z,16.97
2023-08-14T01:53:17.009Z,17.01
2023-08-14T01:54:17.051Z,17.02
2023-08-14T01:55:16.972Z,17.05
2023-08-14T01:56:16.981Z,17.05
2023-08-14T01:57:17.058Z,17.09
2023-08-14T01:58:17.034Z,17.12
2023-08-14T01:59:17.073Z,17.14
2023-08-14T02:00:17.035Z,17.17
2023-08-14T02:01:17.042Z,17.20
2023-08-14T02:02:17.282Z,17.22
2023-08-14T02:03:17.090Z,17.24
2023-08-14T02:04:17.063Z,17.27
2023-08-14T02:05:17.036Z,17.30
2023-08-14T02:06:17.078Z,17.33
2023-08-14T02:07:17.035Z,17.35
2023-08-14T02:08:17.046Z,17.37
2023-08-14T02:09:17.060Z,17.37
2023-08-14T02:10:17.070Z,17.40
2023-08-14T02:11:17.026Z,17.40
2023-08-14T02:12:17.394Z,17.40
2023-08-14T02:13:17.016Z,17.41
2023-08-14T02:14:17.061Z,17.42
2023-08-14T02:15:17.062Z,17.42
2023-08-14T02:16:17.133Z,17.44
2023-08-14T02:17:17.070Z,17.45
2023-08-14T02:18:17.043Z,17.47
2023-08-14T02:19:17.045Z,17.47
2023-08-14T02:20:17.095Z,17.47
2023-08-14T02:21:17.028Z,17.47
2023-08-14T02:22:17.405Z,17.47
2023-08-14T02:23:17.074Z,17.47
2023-08-14T02:24:17.041Z,17.48
2023-08-14T02:25:17.077Z,17.47
2023-08-14T02:26:17.064Z,17.46
2023-08-14T02:27:17.074Z,17.45
2023-08-14T02:28:17.083Z,17.44
2023-08-14T02:29:17.068Z,17.40
2023-08-14T02:30:17.101Z,17.39
2023-08-14T02:31:17.078Z,17.38
2023-08-14T02:32:17.358Z,17.38
2023-08-14T02:33:17.063Z,17.35
2023-08-14T02:34:17.053Z,17.33
2023-08-14T02:35:17.089Z,17.31
2023-08-14T02:36:17.089Z,17.28
2023-08-14T02:37:17.027Z,17.27
2023-08-14T02:38:17.091Z,17.27
2023-08-14T02:39:17.097Z,17.27
2023-08-14T02:40:17.108Z,17.28
2023-08-14T02:41:17.082Z,17.30
2023-08-14T02:42:17.449Z,17.30
2023-08-14T02:43:17.063Z,17.31
2023-08-14T02:44:17.096Z,17.32
2023-08-14T02:45:17.135Z,17.33
2023-08-14T02:46:17.308Z,17.33
2023-08-14T02:47:17.080Z,17.33
2023-08-14T02:48:17.044Z,17.32
2023-08-14T02:49:17.074Z,17.32
2023-08-14T02:50:17.109Z,17.30
2023-08-14T02:51:17.095Z,17.30
2023-08-14T02:52:17.268Z,17.29
2023-08-14T02:53:17.154Z,17.30
2023-08-14T02:54:17.108Z,17.28
2023-08-14T02:55:17.124Z,17.24
2023-08-14T02:56:17.079Z,17.21
2023-08-14T02:57:17.097Z,17.16
2023-08-14T02:58:17.064Z,17.13
2023-08-14T02:59:17.125Z,17.09
2023-08-14T03:00:17.089Z,17.04
2023-08-14T03:01:17.154Z,17.01
2023-08-14T03:02:17.478Z,16.99
2023-08-14T03:03:17.185Z,16.96
2023-08-14T03:04:17.095Z,16.94
2023-08-14T03:05:17.075Z,16.94
2023-08-14T03:06:17.091Z,16.93
2023-08-14T03:07:17.095Z,16.93
2023-08-14T03:08:17.073Z,16.91
2023-08-14T03:09:17.106Z,16.92
2023-08-14T03:10:17.113Z,16.93
2023-08-14T03:11:17.128Z,16.93
2023-08-14T03:12:17.306Z,16.94
2023-08-14T03:13:17.110Z,16.95
2023-08-14T03:14:17.125Z,16.98
2023-08-14T03:15:17.169Z,16.98
2023-08-14T03:16:17.138Z,16.99
2023-08-14T03:17:17.143Z,17.00
2023-08-14T03:18:17.134Z,17.01
2023-08-14T03:19:17.124Z,17.01
2023-08-14T03:20:17.113Z,17.03
2023-08-14T03:21:17.133Z,17.02
2023-08-14T03:22:17.340Z,17.04
2023-08-14T03:23:17.126Z,17.04
2023-08-14T03:24:17.145Z,17.07
2023-08-14T03:25:17.150Z,17.05
2023-08-14T03:26:17.124Z,17.03
2023-08-14T03:27:17.134Z,17.04
2023-08-14T03:28:17.159Z,17.03
2023-08-14T03:29:17.143Z,17.02
2023-08-14T03:30:17.132Z,17.01
2023-08-14T03:31:17.294Z,17.02
2023-08-14T03:32:17.444Z,17.00
2023-08-14T03:33:17.184Z,16.99
2023-08-14T03:34:17.130Z,16.97
2023-08-14T03:35:17.147Z,16.97
2023-08-14T03:36:17.149Z,17.00
2023-08-14T03:37:17.161Z,16.99
2023-08-14T03:38:17.155Z,16.97
2023-08-14T03:39:17.182Z,16.95
2023-08-14T03:40:17.109Z,16.94
2023-08-14T03:41:17.175Z,16.92
2023-08-14T03:42:17.386Z,16.91
2023-08-14T03:43:17.219Z,16.93
2023-08-14T03:44:17.184Z,16.93
2023-08-14T03:45:17.174Z,16.96
2023-08-14T03:46:17.320Z,16.97
2023-08-14T03:47:17.200Z,16.97
2023-08-14T03:48:17.268Z,16.98
2023-08-14T03:49:17.259Z,16.98
2023-08-14T03:50:17.294Z,17.01
2023-08-14T03:51:17.328Z,17.02
2023-08-14T03:52:17.500Z,17.04
2023-08-14T03:53:17.314Z,17.06
2023-08-14T03:54:17.332Z,17.09
2023-08-14T03:55:17.329Z,17.10
2023-08-14T03:56:17.329Z,17.11
2023-08-14T03:57:17.370Z,17.13
2023-08-14T03:58:17.365Z,17.17
2023-08-14T03:59:17.387Z,17.17
2023-08-14T04:00:17.414Z,17.16
2023-08-14T04:01:17.412Z,17.17
2023-08-14T04:02:17.670Z,17.15
2023-08-14T04:03:17.535Z,17.14
2023-08-14T04:04:17.516Z,17.13
2023-08-14T04:05:17.497Z,17.12
2023-08-14T04:06:17.486Z,17.13
2023-08-14T04:07:17.471Z,17.13
2023-08-14T04:08:17.486Z,17.12
2023-08-14T04:09:17.497Z,17.12
2023-08-14T04:10:17.509Z,17.14
2023-08-14T04:11:17.517Z,17.13
2023-08-14T04:12:17.753Z,17.15
2023-08-14T04:13:17.544Z,17.16
2023-08-14T04:14:17.549Z,17.16
2023-08-14T04:15:17.549Z,17.16
2023-08-14T04:16:17.598Z,17.17
2023-08-14T04:17:17.609Z,17.17
2023-08-14T04:18:17.610Z,17.19
2023-08-14T04:19:17.640Z,17.19
2023-08-14T04:20:17.623Z,17.20
2023-08-14T04:21:17.649Z,17.19
2023-08-14T04:22:18.010Z,17.19
2023-08-14T04:23:17.696Z,17.19
2023-08-14T04:24:17.732Z,17.19
2023-08-14T04:25:17.699Z,17.21
2023-08-14T04:26:17.721Z,17.20
2023-08-14T04:27:17.743Z,17.20
2023-08-14T04:28:17.753Z,17.20
2023-08-14T04:29:17.749Z,17.20
2023-08-14T04:30:17.759Z,17.20
2023-08-14T04:31:17.798Z,17.21
2023-08-14T04:32:18.039Z,17.23
2023-08-14T04:33:17.858Z,17.23
2023-08-14T04:34:17.833Z,17.22
2023-08-14T04:35:17.817Z,17.23
2023-08-14T04:36:17.844Z,17.23
2023-08-14T04:37:17.832Z,17.21
2023-08-14T04:38:17.835Z,17.20
2023-08-14T04:39:17.915Z,17.18
2023-08-14T04:40:17.889Z,17.18
2023-08-14T04:41:17.873Z,17.18
2023-08-14T04:42:18.105Z,17.17
2023-08-14T04:43:17.888Z,17.18
2023-08-14T04:44:17.912Z,17.20
2023-08-14T04:45:17.979Z,17.23
2023-08-14T04:46:18.003Z,17.25
2023-08-14T04:47:17.950Z,17.26
2023-08-14T04:48:18.031Z,17.27
2023-08-14T04:49:17.945Z,17.28
2023-08-14T04:50:18.011Z,17.31
2023-08-14T04:51:18.024Z,17.33
2023-08-14T04:52:18.283Z,17.34
2023-08-14T04:53:18.233Z,17.37
2023-08-14T04:54:18.046Z,17.38
2023-08-14T04:55:18.062Z,17.43
2023-08-14T04:56:18.103Z,17.47
2023-08-14T04:57:18.077Z,17.47
2023-08-14T04:58:20.415Z,17.51
2023-08-14T04:59:18.148Z,17.52
2023-08-14T05:00:18.074Z,17.56
2023-08-14T05:01:18.145Z,17.61
2023-08-14T05:02:18.448Z,17.63
2023-08-14T05:03:18.130Z,17.66
2023-08-14T05:04:18.152Z,17.67
2023-08-14T05:05:18.127Z,17.69
2023-08-14T05:06:18.132Z,17.69
2023-08-14T05:07:18.098Z,17.69
2023-08-14T05:08:18.143Z,17.70
2023-08-14T05:09:26.768Z,17.72
2023-08-14T05:10:18.122Z,17.72
2023-08-14T05:11:18.128Z,17.73
2023-08-14T05:12:18.376Z,17.73
2023-08-14T05:13:18.123Z,17.74
2023-08-14T05:14:18.114Z,17.76
2023-08-14T05:15:18.114Z,17.77
2023-08-14T05:16:18.166Z,17.78
2023-08-14T05:17:18.117Z,17.79
2023-08-14T05:18:18.079Z,17.81
2023-08-14T05:19:18.411Z,17.82
2023-08-14T05:20:18.190Z,17.83
2023-08-14T05:21:18.115Z,17.83
2023-08-14T05:22:18.286Z,17.84
2023-08-14T05:23:18.128Z,17.86
2023-08-14T05:24:18.155Z,17.87
2023-08-14T05:25:18.112Z,17.86
2023-08-14T05:26:18.142Z,17.88
2023-08-14T05:27:18.149Z,17.88
2023-08-14T05:28:18.168Z,17.90
2023-08-14T05:29:18.152Z,17.90
2023-08-14T05:30:18.151Z,17.94
2023-08-14T05:31:18.201Z,17.94
2023-08-14T05:32:18.330Z,17.96
2023-08-14T05:33:18.138Z,17.97
2023-08-14T05:34:18.156Z,17.99
2023-08-14T05:35:18.150Z,18.00
2023-08-14T05:36:18.163Z,18.02
2023-08-14T05:37:18.092Z,18.03
2023-08-14T05:38:18.158Z,18.03
2023-08-14T05:39:18.077Z,18.05
2023-08-14T05:40:18.142Z,18.06
2023-08-14T05:41:18.123Z,18.10
2023-08-14T05:42:18.377Z,18.10
2023-08-14T05:43:18.168Z,18.09
2023-08-14T05:44:18.149Z,18.08
2023-08-14T05:45:18.161Z,18.07
2023-08-14T05:46:18.164Z,18.08
2023-08-14T05:47:18.185Z,18.09
2023-08-14T05:48:18.199Z,18.09
2023-08-14T05:49:18.165Z,18.11
2023-08-14T05:50:18.196Z,18.12
2023-08-14T05:51:18.423Z,18.14
2023-08-14T05:52:18.448Z,18.15
2023-08-14T05:53:18.155Z,18.17
2023-08-14T05:54:18.155Z,18.17
2023-08-14T05:55:18.189Z,18.18
2023-08-14T05:56:18.228Z,18.24
2023-08-14T05:57:18.167Z,18.27
2023-08-14T05:58:18.281Z,18.32
2023-08-14T05:59:18.197Z,18.34
2023-08-14T06:00:18.209Z,18.38
2023-08-14T06:01:18.250Z,18.41
2023-08-14T06:02:18.478Z,18.44
2023-08-14T06:03:29.131Z,18.46
2023-08-14T06:04:18.226Z,18.47
2023-08-14T06:05:18.180Z,18.49
2023-08-14T06:06:18.208Z,18.49
2023-08-14T06:07:18.158Z,18.51
2023-08-14T06:08:18.199Z,18.51
2023-08-14T06:09:18.208Z,18.51
2023-08-14T06:10:18.190Z,18.51
2023-08-14T06:11:18.251Z,18.49
2023-08-14T06:12:18.819Z,18.47
2023-08-14T06:13:18.191Z,18.46
2023-08-14T06:14:18.206Z,18.46
2023-08-14T06:15:18.173Z,18.46
2023-08-14T06:16:18.236Z,18.48
2023-08-14T06:17:18.213Z,18.50
2023-08-14T06:18:18.198Z,18.50
2023-08-14T06:19:18.199Z,18.49
2023-08-14T06:20:18.242Z,18.49
2023-08-14T06:21:18.433Z,18.50
2023-08-14T06:22:18.504Z,18.51
2023-08-14T06:23:18.671Z,18.55
2023-08-14T06:24:18.210Z,18.61
2023-08-14T06:25:18.245Z,18.67
2023-08-14T06:26:18.233Z,18.73
2023-08-14T06:27:18.202Z,18.78
2023-08-14T06:28:18.219Z,18.86
2023-08-14T06:29:18.201Z,18.94
2023-08-14T06:30:18.251Z,19.01
2023-08-14T06:31:18.228Z,19.07
2023-08-14T06:32:18.647Z,19.12
2023-08-14T06:33:18.270Z,19.15
2023-08-14T06:34:18.228Z,19.15
2023-08-14T06:35:18.207Z,19.10
2023-08-14T06:36:18.234Z,19.06
2023-08-14T06:37:18.241Z,19.02
2023-08-14T06:38:18.262Z,19.01
2023-08-14T06:39:18.272Z,19.02
2023-08-14T06:40:18.228Z,19.05
2023-08-14T06:41:18.232Z,19.06
2023-08-14T06:42:18.427Z,19.08
2023-08-14T06:43:18.223Z,19.10
2023-08-14T06:44:18.274Z,19.12
2023-08-14T06:45:18.264Z,19.19
2023-08-14T06:46:18.324Z,19.25
2023-08-14T06:47:18.247Z,19.32
2023-08-14T06:48:18.252Z,19.38
2023-08-14T06:49:18.249Z,19.42
2023-08-14T06:50:18.722Z,19.44
2023-08-14T06:51:18.228Z,19.46
2023-08-14T06:52:18.542Z,19.47
2023-08-14T06:53:18.223Z,19.46
2023-08-14T06:54:18.302Z,19.48
2023-08-14T06:55:18.188Z,19.54
2023-08-14T06:56:18.297Z,19.59
2023-08-14T06:57:18.242Z,19.64
2023-08-14T06:58:18.269Z,19.71
2023-08-14T06:59:18.237Z,19.73
2023-08-14T07:00:18.250Z,19.76
2023-08-14T07:01:18.303Z,19.79
2023-08-14T07:02:18.452Z,19.82
2023-08-14T07:03:18.278Z,19.87
2023-08-14T07:04:18.306Z,19.90
2023-08-14T07:05:18.272Z,19.92
2023-08-14T07:06:18.236Z,19.91
2023-08-14T07:07:18.264Z,19.95
2023-08-14T07:08:18.286Z,20.07
2023-08-14T07:09:18.371Z,20.23
2023-08-14T07:10:20.023Z,20.34
2023-08-14T07:11:18.267Z,20.43
2023-08-14T07:12:18.572Z,20.52
2023-08-14T07:13:18.293Z,20.54
2023-08-14T07:14:18.280Z,20.51
2023-08-14T07:15:18.271Z,20.53
2023-08-14T07:16:18.308Z,20.69
2023-08-14T07:17:18.238Z,20.93
2023-08-14T07:18:18.284Z,21.27
2023-08-14T07:19:18.290Z,21.69
2023-08-14T07:20:18.285Z,22.01
2023-08-14T07:21:18.265Z,22.32
2023-08-14T07:22:18.558Z,22.69
2023-08-14T07:23:18.305Z,23.03
2023-08-14T07:24:18.334Z,23.13
2023-08-14T07:25:18.257Z,23.07
2023-08-14T07:26:18.237Z,23.24
2023-08-14T07:27:18.245Z,23.43
2023-08-14T07:28:18.324Z,23.49
2023-08-14T07:29:19.841Z,23.53
2023-08-14T07:30:18.305Z,23.46
2023-08-14T07:31:18.317Z,23.51
2023-08-14T07:32:18.714Z,23.61
2023-08-14T07:33:18.260Z,23.67
2023-08-14T07:34:18.345Z,23.96
2023-08-14T07:35:18.290Z,24.38
2023-08-14T07:36:18.299Z,24.59
2023-08-14T07:37:18.289Z,24.78
2023-08-14T07:38:18.313Z,24.86
2023-08-14T07:39:18.317Z,24.68
2023-08-14T07:40:18.301Z,24.48
2023-08-14T07:41:18.264Z,24.44
2023-08-14T07:42:18.518Z,24.50
2023-08-14T07:43:18.315Z,24.65
2023-08-14T07:44:18.288Z,24.90
2023-08-14T07:45:18.347Z,25.12
2023-08-14T07:46:18.287Z,25.21
2023-08-14T07:47:18.329Z,25.46
2023-08-14T07:48:18.295Z,25.73
2023-08-14T07:49:18.294Z,25.73
2023-08-14T07:50:18.346Z,25.53
2023-08-14T07:51:18.296Z,25.51
2023-08-14T07:52:18.572Z,25.38
2023-08-14T07:53:18.312Z,25.26
2023-08-14T07:54:18.290Z,25.27
2023-08-14T07:55:18.309Z,25.35
2023-08-14T07:56:18.299Z,25.38
2023-08-14T07:57:18.322Z,25.20
2023-08-14T07:58:18.303Z,25.05
2023-08-14T07:59:18.341Z,24.92
2023-08-14T08:00:18.343Z,24.85
2023-08-14T08:01:18.350Z,24.78
2023-08-14T08:02:18.483Z,24.58
2023-08-14T08:03:18.366Z,24.46
2023-08-14T08:05:20.614Z,24.33
2023-08-14T08:06:18.358Z,24.24
2023-08-14T08:07:18.724Z,24.09
2023-08-14T08:08:18.339Z,23.90
2023-08-14T08:09:18.361Z,23.73
2023-08-14T08:10:18.354Z,23.70
2023-08-14T08:11:18.363Z,23.82
2023-08-14T08:12:18.452Z,23.97
2023-08-14T08:13:18.351Z,24.12
2023-08-14T08:14:18.406Z,24.13
2023-08-14T08:15:18.386Z,24.09
2023-08-14T08:16:18.360Z,24.05
2023-08-14T08:17:18.366Z,24.04
2023-08-14T08:18:18.373Z,24.14
2023-08-14T08:19:18.410Z,24.23
2023-08-14T08:20:18.629Z,24.30
2023-08-14T08:21:18.350Z,24.37
2023-08-14T08:22:18.634Z,24.37
2023-08-14T08:23:18.371Z,24.47
2023-08-14T08:24:18.375Z,24.83
2023-08-14T08:25:18.359Z,25.30
2023-08-14T08:26:18.372Z,25.72
2023-08-14T08:27:18.344Z,26.08
2023-08-14T08:28:18.374Z,26.34
2023-08-14T08:29:18.359Z,26.67
2023-08-14T08:30:18.317Z,26.88
2023-08-14T08:31:18.399Z,26.96
2023-08-14T08:32:18.666Z,26.83
2023-08-14T08:33:26.798Z,26.69
2023-08-14T08:34:18.362Z,26.87
2023-08-14T08:35:18.422Z,26.82
2023-08-14T08:36:18.372Z,26.82
2023-08-14T08:37:18.357Z,27.11
2023-08-14T08:38:18.346Z,27.66
2023-08-14T08:39:19.556Z,28.18
2023-08-14T08:40:18.380Z,28.69
2023-08-14T08:41:18.358Z,29.17
2023-08-14T08:42:18.567Z,29.63
2023-08-14T08:43:18.391Z,29.87
2023-08-14T08:44:18.409Z,29.98
2023-08-14T08:45:18.381Z,29.95
2023-08-14T08:46:18.468Z,29.87
2023-08-14T08:47:18.416Z,29.83
2023-08-14T08:48:18.414Z,29.76
2023-08-14T08:49:18.433Z,29.80
2023-08-14T08:50:18.393Z,29.84
2023-08-14T08:51:18.392Z,29.86
2023-08-14T08:52:18.616Z,29.85
2023-08-14T08:53:18.388Z,29.89
2023-08-14T08:54:18.405Z,29.98
2023-08-14T08:55:18.414Z,30.04
2023-08-14T08:56:18.386Z,30.09
2023-08-14T08:57:18.428Z,30.18
2023-08-14T08:58:18.422Z,29.99
2023-08-14T08:59:18.510Z,29.73
2023-08-14T09:00:18.716Z,29.50
2023-08-14T09:01:18.444Z,29.29
2023-08-14T09:02:18.974Z,29.06
2023-08-14T09:03:18.537Z,28.82
2023-08-14T09:04:18.545Z,28.68
2023-08-14T09:05:18.388Z,28.50
2023-08-14T09:06:18.440Z,28.24
2023-08-14T09:07:18.446Z,28.08
2023-08-14T09:08:18.420Z,27.75
2023-08-14T09:09:18.412Z,27.36
2023-08-14T09:10:18.447Z,27.05
2023-08-14T09:11:18.418Z,26.88
2023-08-14T09:12:18.681Z,26.83
2023-08-14T09:14:18.467Z,26.42
2023-08-14T09:15:18.488Z,26.13
2023-08-14T09:16:18.470Z,25.86
2023-08-14T09:17:18.527Z,25.69
2023-08-14T09:18:18.460Z,25.63
2023-08-14T09:19:18.435Z,25.66
2023-08-14T09:21:18.471Z,25.68
2023-08-14T09:22:18.424Z,25.73
2023-08-14T09:23:18.420Z,25.74
2023-08-14T09:24:18.441Z,25.74
2023-08-14T09:25:18.486Z,25.79
2023-08-14T09:26:18.469Z,25.83
2023-08-14T09:27:18.613Z,25.78
2023-08-14T09:28:18.438Z,25.79
2023-08-14T09:29:18.692Z,25.80
2023-08-14T09:30:18.470Z,25.81
2023-08-14T09:31:18.490Z,25.77
2023-08-14T09:32:18.689Z,25.61
2023-08-14T09:33:18.484Z,25.48
2023-08-14T09:34:18.472Z,25.40
2023-08-14T09:35:18.533Z,25.32
2023-08-14T09:36:18.491Z,25.22
2023-08-14T09:37:18.465Z,25.15
2023-08-14T09:38:18.431Z,25.13
2023-08-14T09:39:18.955Z,25.10
2023-08-14T09:40:18.485Z,25.10
2023-08-14T09:41:18.492Z,25.12
2023-08-14T09:42:18.674Z,25.12
2023-08-14T09:43:18.500Z,25.11
2023-08-14T09:44:18.454Z,25.06
2023-08-14T09:45:18.500Z,24.99
2023-08-14T09:46:18.500Z,24.97
2023-08-14T09:47:18.549Z,24.94
2023-08-14T09:48:18.566Z,24.93
2023-08-14T09:49:18.493Z,24.92
2023-08-14T09:50:18.527Z,24.93
2023-08-14T09:51:18.482Z,24.90
2023-08-14T09:52:18.655Z,24.89
2023-08-14T09:53:18.441Z,24.89
2023-08-14T09:54:18.477Z,24.87
2023-08-14T09:55:18.519Z,24.83
2023-08-14T09:56:18.503Z,24.83
2023-08-14T09:57:18.577Z,24.86
2023-08-14T09:58:18.461Z,24.88
2023-08-14T09:59:18.517Z,24.91
2023-08-14T10:00:18.531Z,24.93
2023-08-14T10:01:18.608Z,24.97
2023-08-14T10:02:18.815Z,24.95
2023-08-14T10:03:18.475Z,24.95
2023-08-14T10:04:18.484Z,24.95
2023-08-14T10:05:18.463Z,24.92
2023-08-14T10:06:18.482Z,24.92
2023-08-14T10:07:18.461Z,24.92
2023-08-14T10:08:18.505Z,24.92
2023-08-14T10:09:18.471Z,24.92
2023-08-14T10:10:18.489Z,24.94
2023-08-14T10:11:19.815Z,24.97
2023-08-14T10:12:18.651Z,24.98
2023-08-14T10:13:18.511Z,25.05
2023-08-14T10:14:18.520Z,25.16
2023-08-14T10:15:18.564Z,25.24
2023-08-14T10:16:18.582Z,25.28
2023-08-14T10:17:18.479Z,25.29
2023-08-14T10:18:18.575Z,25.30
2023-08-14T10:19:18.494Z,25.39
2023-08-14T10:20:18.523Z,25.46
2023-08-14T10:21:18.568Z,25.46
2023-08-14T10:22:19.594Z,25.48
2023-08-14T10:23:18.567Z,25.51
2023-08-14T10:24:18.541Z,25.56
2023-08-14T10:25:18.545Z,25.60
2023-08-14T10:26:18.545Z,25.65
2023-08-14T10:27:18.579Z,25.71
2023-08-14T10:28:18.521Z,25.72
2023-08-14T10:29:18.571Z,25.65
2023-08-14T10:30:18.532Z,25.61
2023-08-14T10:31:18.643Z,25.64
2023-08-14T10:32:18.767Z,25.68
2023-08-14T10:33:18.609Z,25.73
2023-08-14T10:34:21.502Z,25.76
2023-08-14T10:35:18.607Z,25.74
2023-08-14T10:36:18.551Z,25.73
2023-08-14T10:37:18.566Z,25.75
2023-08-14T10:38:25.255Z,25.76
2023-08-14T10:39:19.406Z,25.77
2023-08-14T10:40:18.642Z,25.81
2023-08-14T10:41:18.572Z,25.86
2023-08-14T10:42:18.767Z,25.90
2023-08-14T10:43:18.577Z,25.91
2023-08-14T10:44:18.568Z,25.90
2023-08-14T10:45:18.605Z,25.87
2023-08-14T10:46:18.614Z,25.84
2023-08-14T10:47:19.546Z,25.86
2023-08-14T10:48:18.584Z,25.90
2023-08-14T10:49:18.524Z,25.88
2023-08-14T10:50:18.570Z,25.84
2023-08-14T10:51:18.599Z,25.82
2023-08-14T10:52:18.823Z,25.85
2023-08-14T10:53:18.567Z,25.86
2023-08-14T10:54:18.582Z,25.81
2023-08-14T10:55:18.663Z,25.81
2023-08-14T10:56:18.584Z,25.85
2023-08-14T10:57:18.791Z,25.88
2023-08-14T10:58:18.594Z,25.91
2023-08-14T10:59:19.425Z,25.97
2023-08-14T11:00:18.613Z,25.99
2023-08-14T11:01:18.622Z,25.96
2023-08-14T11:02:18.580Z,25.95
2023-08-14T11:03:18.615Z,25.94
2023-08-14T11:04:18.585Z,25.95
2023-08-14T11:05:18.670Z,26.02
2023-08-14T11:06:18.592Z,26.11
2023-08-14T11:07:18.830Z,26.22
2023-08-14T11:08:18.604Z,26.35
2023-08-14T11:09:18.587Z,26.50
2023-08-14T11:10:18.599Z,26.67
2023-08-14T11:11:18.606Z,26.79
2023-08-14T11:12:18.888Z,26.95
2023-08-14T11:13:18.620Z,27.11
2023-08-14T11:14:18.624Z,27.24
2023-08-14T11:15:18.754Z,27.34
2023-08-14T11:16:18.639Z,27.34
2023-08-14T11:17:18.873Z,27.32
2023-08-14T11:18:18.630Z,27.34
2023-08-14T11:19:18.645Z,27.38
2023-08-14T11:20:18.592Z,27.51
2023-08-14T11:21:30.613Z,27.68
2023-08-14T11:22:18.792Z,27.75
2023-08-14T11:23:18.654Z,27.72
2023-08-14T11:24:18.605Z,27.73
2023-08-14T11:25:18.600Z,27.84
2023-08-14T11:26:18.589Z,27.91
2023-08-14T11:27:18.614Z,27.99
2023-08-14T11:28:18.644Z,28.07
2023-08-14T11:29:18.626Z,28.14
2023-08-14T11:30:18.867Z,28.13
2023-08-14T11:31:24.316Z,28.11
2023-08-14T11:32:18.829Z,28.08
2023-08-14T11:33:18.677Z,28.20
2023-08-14T11:34:18.793Z,28.32
2023-08-14T11:35:18.714Z,28.40
2023-08-14T11:36:18.650Z,28.36
2023-08-14T11:37:18.981Z,28.24
2023-08-14T11:38:18.661Z,28.03
2023-08-14T11:39:18.678Z,27.90
2023-08-14T11:40:18.624Z,27.77
2023-08-14T11:41:30.996Z,27.69
2023-08-14T11:42:19.145Z,27.68
2023-08-14T11:43:18.654Z,27.65
2023-08-14T11:44:18.646Z,27.61
2023-08-14T11:45:18.629Z,27.53
2023-08-14T11:46:18.683Z,27.46
2023-08-14T11:47:18.743Z,27.45
2023-08-14T11:48:18.778Z,27.48
2023-08-14T11:49:18.679Z,27.49
2023-08-14T11:50:18.653Z,27.53
2023-08-14T11:51:18.657Z,27.59
2023-08-14T11:52:19.014Z,27.69
2023-08-14T11:53:18.689Z,27.87
2023-08-14T11:54:18.671Z,28.06
2023-08-14T11:55:18.676Z,28.19
2023-08-14T11:56:18.677Z,28.17
2023-08-14T11:57:18.679Z,28.13
2023-08-14T11:58:18.688Z,28.02
2023-08-14T11:59:18.679Z,27.95
2023-08-14T12:00:27.227Z,27.84
2023-08-14T12:01:18.725Z,27.66
2023-08-14T12:02:18.893Z,27.58
2023-08-14T12:03:18.744Z,27.56
2023-08-14T12:04:18.688Z,27.51
2023-08-14T12:05:18.687Z,27.47
2023-08-14T12:06:18.690Z,27.44
2023-08-14T12:07:18.683Z,27.51
2023-08-14T12:08:18.682Z,27.63
2023-08-14T12:09:18.677Z,27.72
2023-08-14T12:10:18.700Z,27.63
2023-08-14T12:11:18.715Z,27.54
2023-08-14T12:12:19.042Z,27.42
2023-08-14T12:13:18.679Z,27.30
2023-08-14T12:14:18.691Z,27.22
2023-08-14T12:15:18.698Z,27.13
2023-08-14T12:16:19.649Z,27.02
2023-08-14T12:17:20.897Z,26.91
2023-08-14T12:18:20.058Z,26.83
2023-08-14T12:19:18.694Z,26.81
2023-08-14T12:20:18.645Z,26.82
2023-08-14T12:21:18.726Z,26.79
2023-08-14T12:22:18.674Z,26.75
2023-08-14T12:23:18.690Z,26.71
2023-08-14T12:24:18.749Z,26.68
2023-08-14T12:25:18.688Z,26.61
2023-08-14T12:26:18.868Z,26.56
2023-08-14T12:27:19.080Z,26.52
2023-08-14T12:28:18.733Z,26.50
2023-08-14T12:29:18.778Z,26.49
2023-08-14T12:30:18.680Z,26.48
2023-08-14T12:31:18.815Z,26.49
2023-08-14T12:32:18.738Z,26.47
2023-08-14T12:33:18.738Z,26.49
2023-08-14T12:34:18.773Z,26.49
2023-08-14T12:35:18.742Z,26.50
2023-08-14T12:36:18.724Z,26.49
2023-08-14T12:37:19.192Z,26.53
2023-08-14T12:38:18.752Z,26.57
2023-08-14T12:39:18.739Z,26.64
2023-08-14T12:40:18.738Z,26.69
2023-08-14T12:41:18.703Z,26.74
2023-08-14T12:42:18.729Z,26.75
2023-08-14T12:43:21.292Z,26.74
2023-08-14T12:44:18.741Z,26.77
2023-08-14T12:45:18.739Z,26.76
2023-08-14T12:46:18.769Z,26.73
2023-08-14T12:47:19.155Z,26.69
2023-08-14T12:48:18.771Z,26.67
2023-08-14T12:49:18.762Z,26.70
2023-08-14T12:50:18.762Z,26.73
2023-08-14T12:51:18.750Z,26.78
2023-08-14T12:52:18.757Z,26.88
2023-08-14T12:53:18.749Z,26.96
2023-08-14T12:54:18.700Z,27.00
2023-08-14T12:55:19.215Z,27.00
2023-08-14T12:56:19.335Z,27.00